Time;durP1;ratioP1;P1;durP2;ratioP2;P2;SDS_P1;SDS_P2;PMS_P1;PMS_P2;Temp;Humidity;BMP_temperature;BMP_pressure;BME280_temperature;BME280_humidity;BME280_pressure;Samples;Min_cycle;Max_cycle;Signal;HPM_P1;HPM_P2
2022/06/18 00:02:00;;;;;;;3.33;3.03;;;;;;;18.51;67.98;98699.66;5052544;28;20220;-68
2022/06/18 00:04:27;;;;;;;3.10;2.90;;;;;;;18.50;68.25;98703.34;5052965;28;20216;-68
2022/06/18 00:06:58;;;;;;;3.03;2.83;;;;;;;18.48;68.44;98691.09;5043727;28;20223;-68
2022/06/18 00:09:28;;;;;;;3.60;3.30;;;;;;;18.43;68.67;98696.88;5053056;28;20235;-69
2022/06/18 00:14:42;;;;;;;3.00;2.80;;;;;;;18.39;68.14;98698.13;5052910;28;20215;-69
2022/06/18 00:17:12;;;;;;;3.10;2.80;;;;;;;18.37;68.29;98692.06;5052708;28;20696;-69
2022/06/18 00:19:39;;;;;;;3.30;3.00;;;;;;;18.39;68.14;98695.44;5052589;28;20226;-68
2022/06/18 00:22:09;;;;;;;3.43;3.10;;;;;;;18.44;67.63;98695.00;5052892;28;20216;-68
2022/06/18 00:24:36;;;;;;;3.37;3.10;;;;;;;18.49;67.64;98704.34;5043552;28;20215;-68
2022/06/18 00:27:02;;;;;;;3.20;2.90;;;;;;;18.50;67.42;98687.28;5051227;28;20216;-68
2022/06/18 00:29:29;;;;;;;3.00;2.80;;;;;;;18.49;67.66;98690.94;5052844;28;20241;-68
2022/06/18 00:31:55;;;;;;;3.07;2.87;;;;;;;18.48;67.85;98688.41;5052927;28;20216;-68
2022/06/18 00:34:22;;;;;;;3.73;3.20;;;;;;;18.48;67.83;98697.25;5052774;28;20212;-68
2022/06/18 00:36:48;;;;;;;3.40;3.10;;;;;;;18.48;67.79;98699.94;5052348;28;20215;-68
2022/06/18 00:39:18;;;;;;;3.57;3.27;;;;;;;18.47;68.07;98692.91;5054245;28;20599;-68
2022/06/18 00:41:47;;;;;;;3.37;3.07;;;;;;;18.44;68.27;98692.34;5056491;28;20220;-68
2022/06/18 00:44:26;;;;;;;3.17;2.97;;;;;;;18.39;68.51;98689.22;5056463;28;20230;-68
2022/06/18 00:47:06;;;;;;;3.83;3.10;;;;;;;18.38;68.91;98687.56;5062882;28;20214;-68
2022/06/18 00:49:38;;;;;;;3.47;3.00;;;;;;;18.35;69.28;98683.31;5051487;28;20216;-68
2022/06/18 00:52:09;;;;;;;2.83;2.63;;;;;;;18.35;69.44;98685.16;5054666;28;20226;-68
2022/06/18 00:54:41;;;;;;;5.20;3.07;;;;;;;18.34;70.01;98686.16;5056487;28;20720;-68
2022/06/18 00:57:13;;;;;;;3.47;3.20;;;;;;;18.32;70.52;98685.44;5056701;28;20212;-68
2022/06/18 00:59:44;;;;;;;3.13;2.83;;;;;;;18.31;70.92;98681.94;5056338;28;20612;-68
2022/06/18 01:02:14;;;;;;;3.17;2.90;;;;;;;18.28;70.97;98682.16;5056454;28;20220;-68
2022/06/18 01:04:41;;;;;;;3.37;3.07;;;;;;;18.29;71.29;98677.66;5052939;28;20591;-68
2022/06/18 01:07:17;;;;;;;3.37;3.07;;;;;;;18.27;71.21;98685.84;5056650;28;20219;-68
2022/06/18 01:09:48;;;;;;;5.10;2.97;;;;;;;18.29;70.97;98683.84;5055901;28;20693;-70
2022/06/18 01:12:15;;;;;;;2.93;2.73;;;;;;;18.32;70.21;98672.91;5056377;28;20218;-70
2022/06/18 01:14:43;;;;;;;3.10;2.80;;;;;;;18.32;70.19;98677.41;5056044;28;20223;-69
2022/06/18 01:17:10;;;;;;;3.03;2.83;;;;;;;18.29;70.08;98680.34;5056248;28;20212;-69
2022/06/18 01:19:40;;;;;;;2.93;2.73;;;;;;;18.30;70.20;98676.69;5054467;28;20584;-70
2022/06/18 01:22:21;;;;;;;3.30;3.00;;;;;;;18.28;70.32;98668.78;5055850;28;20273;-70
2022/06/18 01:24:49;;;;;;;3.10;2.80;;;;;;;18.27;70.51;98664.41;5049778;28;20679;-69
2022/06/18 01:27:16;;;;;;;3.13;2.90;;;;;;;18.28;70.59;98663.44;5055867;28;20220;-69
2022/06/18 01:29:42;;;;;;;3.13;2.83;;;;;;;18.22;70.84;98666.66;5055837;28;20222;-70
2022/06/18 01:32:13;;;;;;;3.37;3.07;;;;;;;18.18;70.94;98670.63;5055880;28;20200;-69
2022/06/18 01:34:39;;;;;;;3.27;2.97;;;;;;;18.13;71.25;98659.50;5049745;28;20584;-69
2022/06/18 01:37:07;;;;;;;3.10;2.90;;;;;;;18.12;71.27;98655.13;5055732;28;20248;-69
2022/06/18 01:39:37;;;;;;;4.90;3.20;;;;;;;18.07;71.57;98653.84;5055596;28;20212;-69
2022/06/18 01:42:10;;;;;;;3.00;2.70;;;;;;;18.08;71.27;98651.03;5055505;28;20310;-69
2022/06/18 01:44:43;;;;;;;3.70;3.40;;;;;;;18.08;71.11;98643.03;5054132;28;20238;-69
2022/06/18 01:47:14;;;;;;;3.27;2.97;;;;;;;18.08;71.25;98637.66;5055627;28;20587;-69
2022/06/18 01:49:46;;;;;;;2.90;2.70;;;;;;;18.03;71.36;98637.25;5055213;28;20298;-69
2022/06/18 01:52:14;;;;;;;3.37;3.10;;;;;;;17.99;71.51;98627.78;5055615;28;20216;-69
2022/06/18 01:54:47;;;;;;;4.20;2.90;;;;;;;17.97;71.87;98624.41;5055524;28;20222;-69
2022/06/18 01:57:18;;;;;;;3.50;3.20;;;;;;;17.97;71.97;98624.41;5055532;28;20226;-70
2022/06/18 01:59:50;;;;;;;3.30;3.00;;;;;;;17.91;72.39;98624.97;5055069;28;20666;-70
2022/06/18 02:02:17;;;;;;;3.40;3.10;;;;;;;17.88;72.65;98619.94;5059714;28;20226;-70
2022/06/18 02:04:44;;;;;;;3.33;3.00;;;;;;;17.86;72.62;98621.03;5055216;28;20212;-70
2022/06/18 02:07:12;;;;;;;3.00;2.70;;;;;;;17.85;72.32;98620.19;5055252;28;20212;-70
2022/06/18 02:09:43;;;;;;;4.90;3.30;;;;;;;17.87;72.26;98622.72;5054402;28;20639;-69
2022/06/18 02:12:16;;;;;;;3.00;2.70;;;;;;;17.88;72.16;98619.06;5054524;28;20216;-69
2022/06/18 02:14:48;;;;;;;3.30;2.90;;;;;;;17.91;72.07;98616.97;5045622;28;20227;-70
2022/06/18 02:17:18;;;;;;;3.17;2.70;;;;;;;17.90;71.93;98612.59;5055146;28;20220;-70
2022/06/18 02:19:49;;;;;;;3.37;2.70;;;;;;;17.92;71.61;98604.44;5055118;28;20212;-70
2022/06/18 02:22:16;;;;;;;3.40;2.70;;;;;;;17.90;72.08;98612.59;5055078;28;20215;-70
2022/06/18 02:24:43;;;;;;;3.00;2.70;;;;;;;17.89;72.21;98605.56;5054655;28;20755;-70
2022/06/18 02:27:13;;;;;;;3.30;3.00;;;;;;;17.86;72.46;98605.81;5054988;28;20212;-70
2022/06/18 02:29:39;;;;;;;3.00;2.70;;;;;;;17.91;72.41;98608.09;5048562;28;20261;-70
2022/06/18 02:32:19;;;;;;;3.43;3.10;;;;;;;17.89;72.46;98594.88;5054721;28;20242;-70
2022/06/18 02:34:45;;;;;;;3.13;2.83;;;;;;;17.87;72.82;98596.81;5054441;28;20212;-69
2022/06/18 02:37:19;;;;;;;3.17;2.90;;;;;;;17.86;72.88;98589.78;5052951;28;20244;-69
2022/06/18 02:39:55;;;;;;;3.50;2.80;;;;;;;17.87;72.86;98590.63;5054625;28;20215;-69
2022/06/18 02:42:21;;;;;;;3.30;3.00;;;;;;;17.84;72.76;98597.13;5045983;28;20215;-69
2022/06/18 02:44:51;;;;;;;3.00;2.80;;;;;;;17.84;72.60;98601.59;5054389;28;20731;-69
2022/06/18 02:47:21;;;;;;;3.43;3.07;;;;;;;17.78;72.72;98597.66;5054549;28;20266;-70
2022/06/18 02:49:53;;;;;;;3.17;2.80;;;;;;;17.76;72.90;98598.78;5054359;28;20211;-68
2022/06/18 02:52:22;;;;;;;3.67;2.70;;;;;;;17.70;73.21;98605.56;5054405;28;20223;-68
2022/06/18 02:54:48;;;;;;;4.20;3.07;;;;;;;17.68;73.53;98598.66;5054070;28;20211;-68
2022/06/18 02:57:22;;;;;;;2.90;2.70;;;;;;;17.67;73.79;98600.47;5053976;28;20695;-69
2022/06/18 02:59:49;;;;;;;3.17;2.87;;;;;;;17.60;74.15;98604.69;5054116;28;20215;-68
2022/06/18 03:02:16;;;;;;;3.57;2.70;;;;;;;17.52;74.50;98609.88;5051551;28;20682;-69
2022/06/18 03:04:44;;;;;;;3.23;2.93;;;;;;;17.59;74.52;98605.66;5054149;28;20223;-69
2022/06/18 03:07:11;;;;;;;2.87;2.67;;;;;;;17.56;74.85;98600.59;5054188;28;20216;-69
2022/06/18 03:12:06;;;;;;;3.37;3.07;;;;;;;17.52;75.23;98601.84;5054111;28;20221;-68
2022/06/18 03:12:23;;;;;;;3.03;2.83;;;;;;;17.45;75.63;98606.06;5053896;28;20251;-69
2022/06/18 03:14:50;;;;;;;3.40;3.10;;;;;;;17.45;75.71;98600.72;5053687;28;20252;-69
2022/06/18 03:17:16;;;;;;;4.03;3.37;;;;;;;17.43;75.94;98597.31;5056683;28;20242;-68
2022/06/18 03:19:50;;;;;;;3.30;3.00;;;;;;;17.42;75.98;98592.97;5053591;28;20224;-68
2022/06/18 03:22:20;;;;;;;3.50;3.20;;;;;;;17.39;76.77;98595.06;5053487;28;20670;-68
2022/06/18 03:24:48;;;;;;;3.33;3.03;;;;;;;17.39;76.66;98590.59;5047469;28;20226;-69
2022/06/18 03:27:16;;;;;;;3.03;2.70;;;;;;;17.37;76.91;98586.31;5053725;28;20227;-69
2022/06/18 03:29:43;;;;;;;3.33;3.03;;;;;;;17.35;77.03;98583.78;5051985;28;20222;-69
2022/06/18 03:32:09;;;;;;;4.03;2.97;;;;;;;17.37;77.02;98587.19;5053408;28;20224;-69
2022/06/18 03:34:36;;;;;;;3.47;3.17;;;;;;;17.33;77.46;98585.75;5053722;28;20222;-69
2022/06/18 03:37:04;;;;;;;3.00;2.80;;;;;;;17.39;77.36;98593.25;5053496;28;20216;-69
2022/06/18 03:39:31;;;;;;;2.97;2.77;;;;;;;17.41;77.20;98590.41;5053645;28;20218;-69
2022/06/18 03:41:58;;;;;;;4.27;3.23;;;;;;;17.40;77.08;98602.97;5053229;28;20216;-69
2022/06/18 03:44:25;;;;;;;3.77;2.70;;;;;;;17.43;77.06;98597.31;5046961;28;20250;-69
2022/06/18 03:46:52;;;;;;;3.33;2.93;;;;;;;17.45;77.42;98605.22;5053496;28;20227;-69
2022/06/18 03:49:25;;;;;;;2.97;2.77;;;;;;;17.47;77.22;98605.91;5053150;28;20665;-69
2022/06/18 03:51:52;;;;;;;3.23;2.93;;;;;;;17.48;77.43;98612.94;5053265;28;20235;-69
2022/06/18 03:54:20;;;;;;;3.27;2.97;;;;;;;17.51;77.31;98610.00;5051367;28;20685;-69
2022/06/18 03:56:46;;;;;;;3.10;2.90;;;;;;;17.53;77.83;98611.56;5053572;28;20216;-69
2022/06/18 03:59:13;;;;;;;3.47;2.90;;;;;;;17.57;77.42;98604.97;5053250;28;20216;-69
2022/06/18 04:01:40;;;;;;;2.97;2.70;;;;;;;17.63;77.25;98619.59;5052837;28;20696;-69
2022/06/18 04:04:07;;;;;;;3.07;2.80;;;;;;;17.67;77.29;98615.69;5053297;28;20219;-68
2022/06/18 04:06:34;;;;;;;3.20;2.83;;;;;;;17.69;77.63;98619.88;5052862;28;20212;-69
2022/06/18 04:09:00;;;;;;;3.60;2.93;;;;;;;17.76;77.87;98609.47;5052803;28;20223;-69
2022/06/18 04:11:28;;;;;;;3.30;3.00;;;;;;;17.82;77.83;98617.81;5052828;28;20243;-69
2022/06/18 04:13:55;;;;;;;3.40;3.10;;;;;;;17.88;77.96;98621.75;5046680;28;20216;-69
2022/06/18 04:16:21;;;;;;;4.03;3.17;;;;;;;17.92;78.30;98621.31;5052998;28;20212;-69
2022/06/18 04:18:48;;;;;;;3.63;3.10;;;;;;;17.98;77.96;98619.94;5052957;28;20208;-68
2022/06/18 04:21:15;;;;;;;3.50;3.20;;;;;;;18.02;78.24;98622.19;5051273;28;20216;-69
2022/06/18 04:23:41;;;;;;;4.07;3.13;;;;;;;18.09;78.22;98612.59;5052648;28;20216;-68
2022/06/18 04:26:08;;;;;;;3.20;2.77;;;;;;;18.18;77.64;98625.16;5052998;28;20584;-69
2022/06/18 04:28:37;;;;;;;3.40;3.10;;;;;;;18.27;77.41;98618.94;5052781;28;20219;-69
2022/06/18 04:31:04;;;;;;;3.20;3.00;;;;;;;18.35;77.16;98629.78;5052846;28;20242;-69
2022/06/18 04:33:30;;;;;;;4.60;2.87;;;;;;;18.44;76.66;98612.03;5052959;28;20212;-69
2022/06/18 04:35:58;;;;;;;3.87;2.90;;;;;;;18.55;76.16;98614.56;5052448;28;20224;-69
2022/06/18 04:38:26;;;;;;;3.67;3.30;;;;;;;18.65;75.75;98620.75;5052451;28;20236;-69
2022/06/18 04:40:53;;;;;;;2.93;2.70;;;;;;;18.72;75.82;98613.81;5052512;28;20215;-69
2022/06/18 04:43:20;;;;;;;3.33;3.00;;;;;;;18.80;75.31;98620.16;5052729;28;20219;-68
2022/06/18 04:45:48;;;;;;;3.17;2.87;;;;;;;18.88;74.87;98627.44;5051203;28;20224;-68
2022/06/18 04:48:15;;;;;;;3.10;2.80;;;;;;;18.95;74.37;98624.03;5052153;28;20216;-69
2022/06/18 04:50:42;;;;;;;2.97;2.77;;;;;;;19.03;73.83;98620.63;5052289;28;20685;-69
2022/06/18 04:53:11;;;;;;;3.00;2.80;;;;;;;19.16;73.57;98621.13;5052626;28;20220;-69
2022/06/18 04:55:38;;;;;;;3.10;2.90;;;;;;;19.31;72.96;98614.31;5052617;28;20212;-69
2022/06/18 04:58:05;;;;;;;3.23;2.93;;;;;;;19.72;71.27;98616.50;5052503;28;20219;-69
2022/06/18 05:00:32;;;;;;;3.10;2.90;;;;;;;20.36;68.80;98606.41;5052307;28;20678;-69
2022/06/18 05:03:00;;;;;;;3.20;2.90;;;;;;;21.06;65.16;98611.63;5052525;28;20220;-69
2022/06/18 05:05:29;;;;;;;2.80;2.60;;;;;;;21.68;62.36;98612.09;5052634;28;20220;-70
2022/06/18 05:07:55;;;;;;;3.60;3.30;;;;;;;22.29;60.00;98617.06;5052364;28;20222;-69
2022/06/18 05:10:22;;;;;;;3.33;3.03;;;;;;;22.86;57.98;98608.84;5052667;28;20208;-70
2022/06/18 05:12:49;;;;;;;3.07;2.80;;;;;;;23.42;56.16;98605.19;5050600;28;20236;-69
2022/06/18 05:15:17;;;;;;;3.67;2.87;;;;;;;23.85;54.28;98610.03;5052298;28;20212;-69
2022/06/18 05:17:47;;;;;;;2.90;2.70;;;;;;;24.26;52.61;98615.00;5052104;28;20700;-69
2022/06/18 05:20:18;;;;;;;3.10;2.80;;;;;;;24.67;50.56;98613.69;5052419;28;20216;-69
2022/06/18 05:22:44;;;;;;;3.03;2.83;;;;;;;25.01;49.70;98616.75;5046040;28;20223;-71
2022/06/18 05:25:12;;;;;;;3.03;2.83;;;;;;;25.37;49.37;98617.72;5053559;28;20587;-70
2022/06/18 05:27:40;;;;;;;2.80;2.60;;;;;;;25.74;47.93;98606.78;5056010;28;20212;-68
2022/06/18 05:30:09;;;;;;;3.60;3.13;;;;;;;26.15;47.12;98604.34;5055706;28;20261;-68
2022/06/18 05:32:35;;;;;;;4.77;3.17;;;;;;;26.41;46.34;98608.19;5049349;28;20712;-70
2022/06/18 05:35:02;;;;;;;3.67;3.17;;;;;;;26.61;46.02;98601.09;5055823;28;20238;-68
2022/06/18 05:37:32;;;;;;;3.10;2.90;;;;;;;26.91;45.84;98610.72;5055583;28;20240;-71
2022/06/18 05:39:59;;;;;;;3.17;2.90;;;;;;;27.24;45.46;98608.28;5054253;28;20678;-69
2022/06/18 05:42:25;;;;;;;3.43;3.13;;;;;;;27.53;44.44;98598.81;5049451;28;20216;-69
2022/06/18 05:44:52;;;;;;;3.17;2.77;;;;;;;27.77;43.60;98605.66;5055460;28;20216;-69
2022/06/18 05:47:22;;;;;;;3.40;3.00;;;;;;;28.03;43.33;98597.59;5055504;28;20216;-69
2022/06/18 05:49:49;;;;;;;2.75;2.50;;;;;;;28.24;42.21;98600.19;5055515;28;20735;-69
2022/06/18 05:52:15;;;;;;;3.30;3.00;;;;;;;28.43;41.75;98605.66;5049435;28;20236;-69
2022/06/18 05:54:43;;;;;;;6.03;2.90;;;;;;;28.71;41.75;98602.75;5055364;28;20318;-69
2022/06/18 05:57:10;;;;;;;3.05;2.75;;;;;;;29.02;40.87;98608.44;5055613;28;20215;-69
2022/06/18 05:59:37;;;;;;;3.72;2.90;;;;;;;29.28;39.81;98597.53;5055315;28;20216;-69
2022/06/18 06:02:04;;;;;;;3.50;3.20;;;;;;;29.46;39.06;98597.69;5055033;28;20220;-69
2022/06/18 06:04:31;;;;;;;3.30;3.00;;;;;;;29.63;38.53;98601.63;5053686;28;20212;-69
2022/06/18 06:06:57;;;;;;;3.60;2.53;;;;;;;29.84;38.88;98606.81;5055235;28;20216;-69
2022/06/18 06:12:12;;;;;;;4.10;3.10;;;;;;;30.01;37.12;98594.34;5050495;28;20246;-70
2022/06/18 06:14:39;;;;;;;3.40;2.85;;;;;;;30.12;37.08;98599.13;5055217;28;20552;-70
2022/06/18 06:17:10;;;;;;;3.42;2.80;;;;;;;30.39;37.49;98595.19;5054914;28;20218;-70
2022/06/18 06:19:36;;;;;;;3.83;2.90;;;;;;;30.59;36.62;98596.75;5054998;28;20266;-70
2022/06/18 06:22:03;;;;;;;3.30;2.78;;;;;;;30.80;35.97;98588.19;5055001;28;20219;-70
2022/06/18 06:24:30;;;;;;;3.33;3.00;;;;;;;30.93;34.91;98598.16;5045228;28;20212;-70
2022/06/18 06:26:56;;;;;;;3.35;3.05;;;;;;;30.98;35.16;98590.16;5054961;28;20302;-70
2022/06/18 06:29:24;;;;;;;4.63;3.00;;;;;;;31.14;35.52;98593.13;5054988;28;20299;-70
2022/06/18 06:31:51;;;;;;;3.30;3.00;;;;;;;31.29;34.91;98593.63;5053078;28;20246;-70
2022/06/18 06:34:17;;;;;;;2.92;2.70;;;;;;;31.50;35.11;98592.38;5054755;28;20242;-70
2022/06/18 06:36:44;;;;;;;2.83;2.63;;;;;;;31.73;34.25;98589.81;5053833;28;20222;-70
2022/06/18 06:39:10;;;;;;;3.30;2.88;;;;;;;31.86;34.29;98589.66;5054711;28;20615;-71
2022/06/18 06:41:37;;;;;;;2.83;2.63;;;;;;;31.89;34.41;98595.50;5054688;28;20226;-71
2022/06/18 06:44:04;;;;;;;3.00;2.80;;;;;;;31.98;34.11;98587.81;5054624;28;20218;-71
2022/06/18 06:46:32;;;;;;;2.63;2.42;;;;;;;32.11;34.35;98583.00;5054535;28;20215;-71
2022/06/18 06:48:59;;;;;;;3.20;2.90;;;;;;;32.24;34.00;98591.06;5054559;28;20212;-71
2022/06/18 06:51:28;;;;;;;3.17;2.83;;;;;;;32.26;33.55;98582.63;5054424;28;20220;-71
2022/06/18 06:53:54;;;;;;;3.15;2.85;;;;;;;32.24;33.32;98585.59;5054096;28;20219;-71
2022/06/18 06:59:08;;;;;;;3.95;2.90;;;;;;;32.32;33.83;98578.94;5047779;28;20717;-71
2022/06/18 07:01:36;;;;;;;2.78;2.58;;;;;;;32.44;33.63;98583.38;5054161;28;20215;-71
2022/06/18 07:04:03;;;;;;;4.50;2.92;;;;;;;32.39;33.43;98596.09;5053957;28;20666;-71
2022/06/18 07:06:30;;;;;;;3.75;2.83;;;;;;;32.17;34.09;98590.28;5053801;28;20212;-71
2022/06/18 07:08:56;;;;;;;3.50;2.75;;;;;;;31.93;34.72;98591.25;5047430;28;20273;-71
2022/06/18 07:11:23;;;;;;;3.00;2.70;;;;;;;31.67;35.32;98590.69;5053891;28;20208;-70
2022/06/18 07:13:50;;;;;;;3.10;2.90;;;;;;;31.38;35.78;98591.44;5053928;28;20220;-71
2022/06/18 07:16:17;;;;;;;3.40;2.90;;;;;;;30.67;36.34;98585.56;5053852;28;20208;-71
2022/06/18 07:18:45;;;;;;;3.10;2.80;;;;;;;29.73;38.18;98588.38;5051576;28;20212;-71
2022/06/18 07:21:14;;;;;;;2.92;2.72;;;;;;;28.95;38.94;98588.56;5050796;28;20332;-71
2022/06/18 07:23:40;;;;;;;3.17;2.88;;;;;;;28.43;40.81;98589.34;5048745;28;20208;-70
2022/06/18 07:26:07;;;;;;;3.10;2.90;;;;;;;28.12;41.81;98590.94;5051462;28;20220;-70
2022/06/18 07:28:34;;;;;;;3.45;3.13;;;;;;;27.93;42.13;98581.69;5049783;28;20216;-71
2022/06/18 07:31:01;;;;;;;4.75;3.10;;;;;;;27.83;43.03;98583.94;5044403;28;20219;-71
2022/06/18 07:33:29;;;;;;;4.40;3.50;;;;;;;27.85;43.24;98572.88;5051215;28;20744;-71
2022/06/18 07:35:57;;;;;;;3.60;2.97;;;;;;;27.82;43.81;98574.13;5050705;28;20216;-72
2022/06/18 07:38:24;;;;;;;3.38;3.00;;;;;;;27.76;42.93;98568.66;5050958;28;20251;-71
2022/06/18 07:40:52;;;;;;;3.58;3.28;;;;;;;27.75;42.45;98572.41;5051493;28;20216;-71
2022/06/18 07:43:21;;;;;;;3.00;2.80;;;;;;;27.74;42.95;98565.28;5050199;28;20219;-71
2022/06/18 07:45:48;;;;;;;3.22;2.85;;;;;;;27.75;43.31;98566.97;5050432;28;20228;-71
2022/06/18 07:48:15;;;;;;;3.05;2.78;;;;;;;27.75;44.02;98566.97;5050112;28;20216;-72
2022/06/18 07:50:43;;;;;;;3.63;3.33;;;;;;;27.80;43.45;98559.06;5048222;28;20212;-72
2022/06/18 07:53:15;;;;;;;3.78;2.85;;;;;;;27.83;43.72;98566.81;5050556;28;20243;-71
2022/06/18 07:55:42;;;;;;;3.28;2.97;;;;;;;27.89;43.90;98552.41;5050311;28;20212;-72
2022/06/18 07:58:08;;;;;;;2.90;2.70;;;;;;;27.97;43.67;98555.78;5050209;28;20212;-72
2022/06/18 08:00:39;;;;;;;4.97;3.17;;;;;;;28.05;42.36;98552.00;5051028;28;20219;-72
2022/06/18 08:03:05;;;;;;;3.08;2.65;;;;;;;28.11;42.05;98551.19;5051228;28;20242;-71
2022/06/18 08:05:32;;;;;;;3.25;2.95;;;;;;;28.13;41.81;98560.00;5050128;28;20212;-72
2022/06/18 08:07:59;;;;;;;2.40;2.13;;;;;;;28.23;42.13;98549.53;5050761;28;20215;-72
2022/06/18 08:10:27;;;;;;;5.78;2.88;;;;;;;28.28;40.92;98547.91;5050881;28;20216;-72
2022/06/18 08:12:54;;;;;;;2.75;2.55;;;;;;;28.40;40.39;98551.69;5050226;28;20239;-72
2022/06/18 08:15:20;;;;;;;2.88;2.58;;;;;;;28.51;39.51;98550.25;5049911;28;20227;-71
2022/06/18 08:17:47;;;;;;;2.72;2.53;;;;;;;28.59;38.65;98545.44;5050745;28;20212;-71
2022/06/18 08:20:14;;;;;;;2.63;2.38;;;;;;;28.73;38.04;98551.72;5049527;28;20774;-72
2022/06/18 08:22:47;;;;;;;2.33;2.10;;;;;;;28.77;37.95;98540.19;5050933;28;20224;-72
2022/06/18 08:25:16;;;;;;;2.30;2.10;;;;;;;28.83;37.89;98541.22;5050943;28;20215;-72
2022/06/18 08:27:45;;;;;;;2.92;2.35;;;;;;;28.81;35.80;98546.03;5050265;28;20222;-71
2022/06/18 08:30:13;;;;;;;2.20;2.10;;;;;;;28.85;36.84;98544.59;5049318;28;20215;-71
2022/06/18 08:32:39;;;;;;;2.45;2.25;;;;;;;28.90;37.56;98542.03;5050089;28;20277;-71
2022/06/18 08:35:07;;;;;;;3.10;2.30;;;;;;;28.94;37.12;98548.75;5049854;28;20316;-70
2022/06/18 08:37:34;;;;;;;2.22;2.13;;;;;;;29.03;36.47;98540.19;5050321;28;20247;-74
2022/06/18 08:40:34;;;;;;;4.50;4.10;;;;;;;29.08;35.44;98534.09;5050238;28;20212;-73
2022/06/18 08:43:03;;;;;;;2.80;2.40;;;;;;;29.16;35.16;98531.16;5045132;28;20219;-73
2022/06/18 08:45:38;;;;;;;2.17;1.98;;;;;;;29.22;35.80;98524.84;5050710;28;20215;-73
2022/06/18 08:48:24;;;;;;;3.00;2.10;;;;;;;29.26;35.57;98523.34;5045034;28;20212;-74
2022/06/18 08:51:01;;;;;;;2.28;2.05;;;;;;;29.30;34.83;98514.56;5048084;28;20211;-71
2022/06/18 08:53:54;;;;;;;2.63;1.92;;;;;;;29.45;35.33;98525.16;5050259;28;20257;-74
2022/06/18 08:56:29;;;;;;;2.13;2.03;;;;;;;29.60;35.72;98523.06;5025271;28;20218;-72
2022/06/18 08:59:05;;;;;;;1.95;1.85;;;;;;;29.68;35.98;98520.94;5041888;28;20868;-73
2022/06/18 09:01:37;;;;;;;2.30;2.10;;;;;;;29.72;34.22;98518.59;5054015;28;20208;-73
2022/06/18 09:04:16;;;;;;;1.98;1.88;;;;;;;29.75;33.31;98515.41;5054516;28;20222;-73
2022/06/18 09:06:58;;;;;;;2.58;2.05;;;;;;;29.83;34.78;98515.19;5054317;28;20961;-75
2022/06/18 09:09:35;;;;;;;1.70;1.60;;;;;;;29.86;32.92;98510.13;5052258;28;20298;-73
2022/06/18 09:12:07;;;;;;;3.47;1.50;;;;;;;29.92;32.46;98516.59;5053433;28;20946;-74
2022/06/18 09:14:42;;;;;;;1.80;1.70;;;;;;;29.89;30.58;98517.03;5054125;28;20212;-74
2022/06/18 09:17:16;;;;;;;1.42;1.33;;;;;;;29.98;31.69;98511.13;5054213;28;20265;-73
2022/06/18 09:19:45;;;;;;;1.70;1.60;;;;;;;30.01;31.33;98512.56;5052831;28;20216;-73
2022/06/18 09:22:16;;;;;;;1.70;1.60;;;;;;;30.09;30.47;98495.97;5051129;28;20208;-73
2022/06/18 09:24:45;;;;;;;1.50;1.40;;;;;;;30.16;30.26;98503.06;5053697;28;20209;-73
2022/06/18 09:27:24;;;;;;;1.50;1.40;;;;;;;30.27;29.65;98498.78;5053336;28;20219;-73
2022/06/18 09:30:00;;;;;;;1.50;1.40;;;;;;;30.36;30.58;98497.44;5053706;28;20216;-73
2022/06/18 09:32:32;;;;;;;2.10;1.30;;;;;;;30.41;29.23;98494.88;5047640;28;20297;-73
2022/06/18 09:35:02;;;;;;;1.42;1.30;;;;;;;30.42;29.11;98502.84;5053234;28;20223;-72
2022/06/18 09:37:35;;;;;;;1.60;1.50;;;;;;;30.41;27.66;98489.41;5052192;28;20250;-72
2022/06/18 09:40:04;;;;;;;1.52;1.42;;;;;;;30.40;29.15;98487.75;5044181;28;20216;-73
2022/06/18 09:42:38;;;;;;;1.92;1.45;;;;;;;30.51;30.13;98492.47;5052388;28;20834;-73
2022/06/18 09:45:12;;;;;;;1.63;1.40;;;;;;;30.63;27.36;98487.97;5053849;28;20215;-70
2022/06/18 09:47:41;;;;;;;1.42;1.33;;;;;;;30.66;28.04;98488.38;5053701;28;20216;-70
2022/06/18 09:50:17;;;;;;;1.85;1.48;;;;;;;30.78;29.02;98491.19;5052427;28;20216;-71
2022/06/18 09:52:48;;;;;;;1.50;1.40;;;;;;;30.79;28.53;98480.06;5053284;28;20235;-74
2022/06/18 09:55:21;;;;;;;1.98;1.40;;;;;;;30.88;29.25;98481.44;5053350;28;20807;-71
2022/06/18 09:57:52;;;;;;;2.55;2.20;;;;;;;31.03;30.53;98484.66;5052628;28;20232;-72
2022/06/18 10:00:24;;;;;;;1.90;1.65;;;;;;;31.17;30.12;98486.16;5052931;28;20215;-73
2022/06/18 10:02:55;;;;;;;2.00;1.80;;;;;;;31.28;30.23;98488.16;5046187;28;20247;-73
2022/06/18 10:08:12;;;;;;;2.03;1.80;;;;;;;31.16;29.69;98484.50;5053050;28;20693;-71
2022/06/18 10:10:46;;;;;;;2.03;1.83;;;;;;;30.99;29.63;98477.13;5046293;28;20222;-72
2022/06/18 10:13:18;;;;;;;1.27;1.27;;;;;;;31.10;29.54;98473.63;5051969;28;20232;-72
2022/06/18 10:15:46;;;;;;;1.50;1.40;;;;;;;31.22;27.95;98477.31;5052952;28;20212;-70
2022/06/18 10:18:27;;;;;;;1.52;1.42;;;;;;;31.34;28.94;98465.41;5052838;28;20231;-73
2022/06/18 10:20:59;;;;;;;1.17;1.10;;;;;;;31.37;28.38;98466.84;5053818;28;20223;-73
2022/06/18 10:23:36;;;;;;;1.52;1.30;;;;;;;31.44;28.09;98457.50;5053828;28;20219;-73
2022/06/18 10:26:18;;;;;;;1.48;1.38;;;;;;;31.51;28.08;98458.25;5053824;28;20220;-73
2022/06/18 10:28:56;;;;;;;3.63;2.00;;;;;;;31.71;29.83;98455.22;5052758;28;20215;-73
2022/06/18 10:31:35;;;;;;;1.63;1.50;;;;;;;31.66;28.30;98442.25;5053623;28;20322;-73
2022/06/18 10:34:10;;;;;;;2.95;1.50;;;;;;;31.75;28.36;98434.59;5053126;28;20239;-72
2022/06/18 10:36:44;;;;;;;1.80;1.38;;;;;;;31.68;26.41;98439.28;5052812;28;20273;-72
2022/06/18 10:39:21;;;;;;;1.45;1.35;;;;;;;31.78;26.95;98434.13;5053355;28;20224;-73
2022/06/18 10:42:02;;;;;;;1.35;1.25;;;;;;;31.89;27.40;98427.84;5050932;28;20246;-73
2022/06/18 10:44:41;;;;;;;1.33;1.20;;;;;;;31.98;26.98;98421.00;5053443;28;20212;-72
2022/06/18 10:47:13;;;;;;;1.63;1.40;;;;;;;32.06;25.51;98416.03;5053295;28;20220;-73
2022/06/18 10:49:39;;;;;;;1.33;1.23;;;;;;;32.07;26.34;98419.56;5050628;28;20212;-73
2022/06/18 10:52:17;;;;;;;1.52;1.40;;;;;;;32.08;26.24;98413.06;5053062;28;20212;-73
2022/06/18 10:54:44;;;;;;;1.30;1.20;;;;;;;32.13;26.20;98404.94;5043332;28;20255;-73
2022/06/18 10:57:22;;;;;;;1.30;1.20;;;;;;;32.23;26.47;98408.78;5051543;28;20226;-72
2022/06/18 10:59:49;;;;;;;1.65;1.40;;;;;;;32.35;25.90;98411.56;5051329;28;20226;-74
2022/06/18 11:02:20;;;;;;;1.23;1.13;;;;;;;32.42;25.04;98406.81;5052697;28;20216;-72
2022/06/18 11:04:54;;;;;;;1.40;1.30;;;;;;;32.46;26.57;98405.25;5049130;28;20216;-72
2022/06/18 11:07:24;;;;;;;2.05;1.10;;;;;;;32.53;26.32;98400.50;5051717;28;20699;-72
2022/06/18 11:09:56;;;;;;;1.23;1.13;;;;;;;32.59;26.74;98403.13;5051895;28;20208;-71
2022/06/18 11:12:27;;;;;;;1.10;1.10;;;;;;;32.60;26.11;98395.72;5049984;28;20234;-71
2022/06/18 11:14:54;;;;;;;1.40;1.30;;;;;;;32.58;25.61;98398.69;5049749;28;20702;-71
2022/06/18 11:17:27;;;;;;;2.80;1.50;;;;;;;32.61;24.89;98402.88;5050877;28;20218;-71
2022/06/18 11:19:53;;;;;;;1.85;1.25;;;;;;;32.61;24.94;98397.38;5034882;28;20224;-71
2022/06/18 11:22:25;;;;;;;2.60;1.30;;;;;;;32.69;25.61;98395.13;5033787;28;20599;-71
2022/06/18 11:24:57;;;;;;;2.28;1.25;;;;;;;32.77;25.46;98391.22;5035425;28;20216;-71
2022/06/18 11:27:29;;;;;;;1.45;1.20;;;;;;;32.90;25.82;98389.06;5047796;28;20232;-72
2022/06/18 11:29:56;;;;;;;2.25;1.30;;;;;;;32.95;24.77;98386.41;5051624;28;20216;-72
2022/06/18 11:32:30;;;;;;;1.77;1.40;;;;;;;32.96;25.07;98381.78;5052364;28;20203;-74
2022/06/18 11:35:02;;;;;;;2.08;1.80;;;;;;;33.03;26.31;98372.38;5052296;28;20232;-75
2022/06/18 11:37:31;;;;;;;2.33;1.45;;;;;;;33.06;25.76;98373.78;5052020;28;20718;-74
2022/06/18 11:40:03;;;;;;;1.92;1.20;;;;;;;33.17;25.26;98368.25;5052245;28;20216;-74
2022/06/18 11:42:37;;;;;;;2.97;1.40;;;;;;;33.16;26.60;98369.34;5052328;28;20723;-77
2022/06/18 11:45:18;;;;;;;2.08;1.23;;;;;;;33.17;25.90;98361.94;5048413;28;20220;-76
2022/06/18 11:47:50;;;;;;;1.90;1.20;;;;;;;33.21;25.08;98365.88;5051121;28;20216;-76
2022/06/18 11:50:24;;;;;;;2.22;1.52;;;;;;;33.28;24.48;98366.56;5050442;28;20222;-76
2022/06/18 11:53:00;;;;;;;2.50;1.27;;;;;;;33.31;24.91;98361.44;5051841;28;20588;-76
2022/06/18 11:55:30;;;;;;;1.88;1.27;;;;;;;33.33;24.69;98352.97;5040271;28;20243;-76
2022/06/18 11:58:05;;;;;;;2.20;1.40;;;;;;;33.39;24.85;98349.25;5051684;28;20220;-76